sensor_id;sensor_type;location;lat;lon;timestamp;pressure;altitude;pressure_sealevel;temperature;humidity
39141;BME280;24875;48.436;10.298;2023-02-26T21:10:49;96464.56;;;-0.42;92.80
39141;BME280;24875;48.436;10.298;2023-02-26T21:13:16;96463.97;;;-0.58;94.15
39141;BME280;24875;48.436;10.298;2023-02-26T21:15:43;96463.88;;;-0.69;93.64
39141;BME280;24875;48.436;10.298;2023-02-26T21:18:10;96465.00;;;-0.73;94.27
39141;BME280;24875;48.436;10.298;2023-02-26T21:20:36;96478.69;;;-0.59;94.31
39141;BME280;24875;48.436;10.298;2023-02-26T21:23:03;96468.34;;;-0.59;93.69
39141;BME280;24875;48.436;10.298;2023-02-26T21:25:29;96473.91;;;-0.52;92.76
39141;BME280;24875;48.436;10.298;2023-02-26T21:27:58;96475.47;;;-0.62;93.22
39141;BME280;24875;48.436;10.298;2023-02-26T21:30:24;96478.75;;;-0.60;93.07
39141;BME280;24875;48.436;10.298;2023-02-26T21:32:53;96475.47;;;-0.74;93.63
39141;BME280;24875;48.436;10.298;2023-02-26T21:35:19;96469.38;;;-0.73;93.82
39141;BME280;24875;48.436;10.298;2023-02-26T21:37:46;96471.03;;;-0.85;93.17
39141;BME280;24875;48.436;10.298;2023-02-26T21:40:13;96472.66;;;-0.71;93.39
39141;BME280;24875;48.436;10.298;2023-02-26T21:42:41;96466.66;;;-0.84;93.46
39141;BME280;24875;48.436;10.298;2023-02-26T21:45:10;96467.28;;;-0.81;93.44
39141;BME280;24875;48.436;10.298;2023-02-26T21:47:37;96469.69;;;-0.90;93.34
39141;BME280;24875;48.436;10.298;2023-02-26T21:50:04;96466.16;;;-0.77;93.83
39141;BME280;24875;48.436;10.298;2023-02-26T21:52:31;96463.25;;;-0.85;92.94
39141;BME280;24875;48.436;10.298;2023-02-26T21:54:58;96472.06;;;-0.87;93.00
39141;BME280;24875;48.436;10.298;2023-02-26T21:57:25;96467.59;;;-0.98;93.29
39141;BME280;24875;48.436;10.298;2023-02-26T21:59:52;96470.38;;;-1.13;94.43
39141;BME280;24875;48.436;10.298;2023-02-26T22:02:20;96461.91;;;-1.03;94.50
39141;BME280;24875;48.436;10.298;2023-02-26T22:04:46;96465.28;;;-1.15;93.71
39141;BME280;24875;48.436;10.298;2023-02-26T22:07:13;96472.66;;;-1.09;93.67
39141;BME280;24875;48.436;10.298;2023-02-26T22:09:39;96471.53;;;-1.17;93.91
39141;BME280;24875;48.436;10.298;2023-02-26T22:12:07;96472.66;;;-1.09;93.93
39141;BME280;24875;48.436;10.298;2023-02-26T22:14:34;96471.28;;;-1.26;94.95
39141;BME280;24875;48.436;10.298;2023-02-26T22:17:01;96476.75;;;-1.19;93.98
39141;BME280;24875;48.436;10.298;2023-02-26T22:19:29;96478.03;;;-1.12;94.28
39141;BME280;24875;48.436;10.298;2023-02-26T22:21:55;96472.19;;;-1.27;95.35
39141;BME280;24875;48.436;10.298;2023-02-26T22:24:22;96473.91;;;-1.14;94.67
39141;BME280;24875;48.436;10.298;2023-02-26T22:26:48;96473.16;;;-1.16;94.76
39141;BME280;24875;48.436;10.298;2023-02-26T22:29:15;96474.81;;;-1.15;94.32
39141;BME280;24875;48.436;10.298;2023-02-26T22:31:41;96483.00;;;-1.09;96.29
39141;BME280;24875;48.436;10.298;2023-02-26T22:34:08;96479.88;;;-1.26;96.60
39141;BME280;24875;48.436;10.298;2023-02-26T22:36:36;96473.38;;;-1.19;97.17
39141;BME280;24875;48.436;10.298;2023-02-26T22:39:03;96473.78;;;-1.13;95.72
39141;BME280;24875;48.436;10.298;2023-02-26T22:41:30;96478.84;;;-1.11;96.47
39141;BME280;24875;48.436;10.298;2023-02-26T22:43:56;96473.69;;;-1.11;95.29
39141;BME280;24875;48.436;10.298;2023-02-26T22:46:23;96471.84;;;-0.97;95.38
39141;BME280;24875;48.436;10.298;2023-02-26T22:48:52;96470.38;;;-1.01;96.04
39141;BME280;24875;48.436;10.298;2023-02-26T22:51:19;96480.72;;;-1.01;95.01
39141;BME280;24875;48.436;10.298;2023-02-26T22:53:47;96481.31;;;-1.10;94.20
39141;BME280;24875;48.436;10.298;2023-02-26T22:56:13;96489.44;;;-1.02;94.85
39141;BME280;24875;48.436;10.298;2023-02-26T22:58:40;96492.91;;;-1.15;95.27
39141;BME280;24875;48.436;10.298;2023-02-26T23:01:07;96498.22;;;-1.04;94.84
39141;BME280;24875;48.436;10.298;2023-02-26T23:03:34;96498.03;;;-1.27;95.67
39141;BME280;24875;48.436;10.298;2023-02-26T23:06:00;96497.13;;;-1.26;95.11
39141;BME280;24875;48.436;10.298;2023-02-26T23:08:27;96493.13;;;-1.18;95.70
39141;BME280;24875;48.436;10.298;2023-02-26T23:10:55;96491.69;;;-1.22;95.04
39141;BME280;24875;48.436;10.298;2023-02-26T23:13:23;96492.63;;;-1.11;95.85
39141;BME280;24875;48.436;10.298;2023-02-26T23:15:50;96495.59;;;-1.17;95.08
39141;BME280;24875;48.436;10.298;2023-02-26T23:18:16;96500.56;;;-1.26;95.17
39141;BME280;24875;48.436;10.298;2023-02-26T23:20:43;96500.34;;;-1.23;95.22
39141;BME280;24875;48.436;10.298;2023-02-26T23:23:10;96506.63;;;-1.39;94.69
39141;BME280;24875;48.436;10.298;2023-02-26T23:25:36;96502.34;;;-1.14;95.57
39141;BME280;24875;48.436;10.298;2023-02-26T23:28:04;96497.25;;;-1.03;94.14
39141;BME280;24875;48.436;10.298;2023-02-26T23:30:30;96507.59;;;-1.16;94.47
39141;BME280;24875;48.436;10.298;2023-02-26T23:32:58;96510.69;;;-1.23;94.93
39141;BME280;24875;48.436;10.298;2023-02-26T23:35:24;96510.25;;;-1.29;94.81
39141;BME280;24875;48.436;10.298;2023-02-26T23:37:51;96512.09;;;-1.31;94.57
39141;BME280;24875;48.436;10.298;2023-02-26T23:40:18;96504.16;;;-1.28;94.26
39141;BME280;24875;48.436;10.298;2023-02-26T23:42:44;96493.22;;;-1.07;93.18
39141;BME280;24875;48.436;10.298;2023-02-26T23:45:12;96497.97;;;-1.14;94.26
39141;BME280;24875;48.436;10.298;2023-02-26T23:47:40;96495.38;;;-1.26;94.32
39141;BME280;24875;48.436;10.298;2023-02-26T23:50:07;96493.13;;;-1.18;94.21
39141;BME280;24875;48.436;10.298;2023-02-26T23:52:35;96489.69;;;-1.19;93.89
39141;BME280;24875;48.436;10.298;2023-02-26T23:55:01;96493.91;;;-1.30;95.28
39141;BME280;24875;48.436;10.298;2023-02-26T23:57:28;96496.63;;;-1.19;93.95
39141;BME280;24875;48.436;10.298;2023-02-26T23:59:54;96499.72;;;-1.26;95.31
